Time,TemperatureF,DewpointF,PressureIn,WindDirection,WindDirectionDegrees,WindSpeedMPH,WindSpeedGustMPH,Humidity,HourlyPrecipIn,Conditions,Clouds,dailyrainin,SoftwareType,DateUTC
2013-03-20 00:00:00,7.9,5.5,29.00,East,96,6.0,6.0,90,0.00,CLR,,0.00,WeatherDisplay:10.37,2013-03-19 11:00:00,
2013-03-20 00:15:00,8.3,5.9,29.00,East,82,8.0,8.0,90,0.00,CLR,,0.00,WeatherDisplay:10.37,2013-03-19 11:15:00,
2013-03-20 00:30:00,8.5,6.1,29.00,ENE,75,9.0,9.0,90,0.00,CLR,,0.00,WeatherDisplay:10.37,2013-03-19 11:30:00,
2013-03-20 00:45:00,8.8,6.4,29.00,East,87,8.0,9.0,90,0.00,CLR,,0.00,WeatherDisplay:10.37,2013-03-19 11:45:00,
2013-03-20 01:00:00,8.9,6.6,29.00,East,90,7.0,8.0,90,0.00,CLR,,0.00,WeatherDisplay:10.37,2013-03-19 12:00:00,
2013-03-20 01:15:00,9.0,6.7,29.00,ESE,107,9.0,9.0,90,0.00,CLR,,0.00,WeatherDisplay:10.37,2013-03-19 12:15:00,
2013-03-20 01:30:00,9.0,6.7,29.00,ESE,118,9.0,9.0,90,0.00,CLR,,0.00,WeatherDisplay:10.37,2013-03-19 12:30:00,
2013-03-20 01:45:00,9.1,6.7,29.00,ESE,116,8.0,9.0,90,0.00,CLR,,0.00,WeatherDisplay:10.37,2013-03-19 12:45:00,
2013-03-20 02:00:00,9.0,6.6,29.00,SE,127,7.0,8.0,90,0.00,CLR,,0.00,WeatherDisplay:10.37,2013-03-19 13:00:00,
2013-03-20 02:15:00,8.9,6.5,28.99,East,93,5.0,7.0,90,0.00,CLR,,0.00,WeatherDisplay:10.37,2013-03-19 13:15:00,
2013-03-20 02:30:00,8.8,6.5,28.99,East,90,8.0,8.0,90,0.00,CLR,,0.00,WeatherDisplay:10.37,2013-03-19 13:30:00,
2013-03-20 02:45:00,8.7,6.4,28.99,East,84,8.0,8.0,90,0.00,CLR,,0.00,WeatherDisplay:10.37,2013-03-19 13:45:00,
2013-03-20 03:00:00,9.1,7.0,29.00,SE,137,7.0,8.0,91,0.00,CLR,,0.00,WeatherDisplay:10.37,2013-03-19 14:00:00,
2013-03-20 03:15:00,9.4,7.3,28.99,ESE,121,7.0,7.0,91,0.00,CLR,,0.00,WeatherDisplay:10.37,2013-03-19 14:15:00,
2013-03-20 03:30:00,9.1,6.7,28.99,ENE,65,5.0,7.0,90,0.00,CLR,,0.00,WeatherDisplay:10.37,2013-03-19 14:30:00,
2013-03-20 03:45:00,9.7,7.6,28.99,East,100,7.0,7.0,91,0.00,CLR,,0.00,WeatherDisplay:10.37,2013-03-19 14:45:00,
2013-03-20 04:00:00,9.6,7.5,28.99,East,86,7.0,7.0,91,0.00,CLR,,0.00,WeatherDisplay:10.37,2013-03-19 15:00:00,
2013-03-20 04:15:00,9.6,7.5,28.98,ESE,111,8.0,8.0,91,0.00,CLR,,0.00,WeatherDisplay:10.37,2013-03-19 15:15:00,
2013-03-20 04:30:00,9.6,7.5,28.98,ESE,111,8.0,8.0,91,0.00,CLR,,0.00,WeatherDisplay:10.37,2013-03-19 15:30:00,
2013-03-20 04:45:00,9.7,7.6,28.98,East,84,7.0,8.0,91,0.00,CLR,,0.00,WeatherDisplay:10.37,2013-03-19 15:45:00,
2013-03-20 05:00:00,9.9,7.8,28.97,NE,46,7.0,7.0,91,0.00,CLR,,0.00,WeatherDisplay:10.37,2013-03-19 16:00:00,
2013-03-20 05:15:00,9.5,7.4,28.97,NE,42,13.0,13.0,91,0.00,CLR,,0.00,WeatherDisplay:10.37,2013-03-19 16:15:00,
2013-03-20 05:30:00,9.5,7.4,28.96,NE,38,15.0,15.0,91,0.00,CLR,,0.00,WeatherDisplay:10.37,2013-03-19 16:30:00,
2013-03-20 05:45:00,9.6,7.5,28.96,NE,47,15.0,15.0,91,0.00,CLR,,0.00,WeatherDisplay:10.37,2013-03-19 16:45:00,
2013-03-20 06:00:00,9.6,7.5,28.96,NE,47,13.0,15.0,91,0.00,CLR,,0.00,WeatherDisplay:10.37,2013-03-19 17:00:00,
2013-03-20 06:15:00,9.8,7.7,28.96,NE,51,8.0,13.0,91,0.00,CLR,,0.00,WeatherDisplay:10.37,2013-03-19 17:15:00,
2013-03-20 06:30:00,10.0,7.9,28.96,ENE,68,3.0,8.0,91,0.00,CLR,,0.00,WeatherDisplay:10.37,2013-03-19 17:30:00,
2013-03-20 06:45:00,9.6,7.2,28.96,SE,139,10.0,10.0,90,0.00,CLR,,0.00,WeatherDisplay:10.37,2013-03-19 17:45:00,
2013-03-20 07:00:00,8.8,6.4,28.96,SSE,153,10.0,10.0,90,0.00,CLR,,0.00,WeatherDisplay:10.37,2013-03-19 18:00:00,
2013-03-20 07:15:00,8.3,6.0,28.96,SE,142,8.0,10.0,90,0.00,CLR,,0.00,WeatherDisplay:10.37,2013-03-19 18:15:00,
2013-03-20 07:30:00,8.2,5.9,28.96,SE,142,7.0,8.0,90,0.00,CLR,,0.00,WeatherDisplay:10.37,2013-03-19 18:30:00,
2013-03-20 07:45:00,8.1,5.8,28.95,ESE,113,5.0,7.0,90,0.00,CLR,,0.00,WeatherDisplay:10.37,2013-03-19 18:45:00,
2013-03-20 08:00:00,8.3,5.9,28.95,East,91,2.0,5.0,90,0.00,CLR,,0.00,WeatherDisplay:10.37,2013-03-19 19:00:00,
2013-03-20 08:15:00,7.9,5.6,28.94,NE,36,7.0,7.0,90,0.00,CLR,,0.00,WeatherDisplay:10.37,2013-03-19 19:15:00,
2013-03-20 08:30:00,7.9,5.6,28.94,NE,55,8.0,8.0,90,0.00,CLR,,0.00,WeatherDisplay:10.37,2013-03-19 19:30:00,
2013-03-20 08:45:00,7.9,5.6,28.94,ENE,57,13.0,13.0,90,0.00,CLR,,0.00,WeatherDisplay:10.37,2013-03-19 19:45:00,
2013-03-20 09:00:00,7.7,5.4,28.94,NE,45,10.0,13.0,90,0.00,CLR,,0.00,WeatherDisplay:10.37,2013-03-19 20:00:00,
2013-03-20 09:15:00,7.5,5.2,28.93,ENE,59,13.0,13.0,90,0.00,CLR,,0.00,WeatherDisplay:10.37,2013-03-19 20:15:00,
2013-03-20 09:30:00,7.1,4.5,28.93,NE,52,16.0,16.0,89,0.00,CLR,,0.00,WeatherDisplay:10.37,2013-03-19 20:30:00,
2013-03-20 09:45:00,6.7,4.1,28.93,NNE,18,16.0,16.0,89,0.00,CLR,,0.00,WeatherDisplay:10.37,2013-03-19 20:45:00,
2013-03-20 10:00:00,6.4,3.8,28.93,NNE,26,15.0,16.0,89,0.00,CLR,,0.00,WeatherDisplay:10.37,2013-03-19 21:00:00,
2013-03-20 10:15:00,5.8,3.3,28.93,NE,35,13.0,15.0,89,0.00,CLR,,0.00,WeatherDisplay:10.37,2013-03-19 21:15:00,
2013-03-20 10:30:00,5.8,3.3,28.93,NE,36,12.0,13.0,89,0.00,CLR,,0.00,WeatherDisplay:10.37,2013-03-19 21:30:00,
2013-03-20 10:45:00,5.1,2.4,28.92,NE,35,14.0,14.0,88,0.00,CLR,,0.00,WeatherDisplay:10.37,2013-03-19 21:45:00,
2013-03-20 11:00:00,4.8,2.0,28.92,NE,34,21.0,21.0,88,0.00,CLR,,0.00,WeatherDisplay:10.37,2013-03-19 22:00:00,
2013-03-20 11:15:00,4.5,1.7,28.92,NNE,29,21.0,21.0,88,0.00,CLR,,0.00,WeatherDisplay:10.37,2013-03-19 22:15:00,
2013-03-20 11:30:00,4.4,1.6,28.92,NE,37,18.0,21.0,88,0.00,CLR,,0.00,WeatherDisplay:10.37,2013-03-19 22:30:00,
2013-03-20 11:45:00,4.3,1.5,28.92,NE,39,14.0,18.0,88,0.00,CLR,,0.00,WeatherDisplay:10.37,2013-03-19 22:45:00,
2013-03-20 12:00:00,4.2,1.4,28.92,NE,41,12.0,14.0,88,0.00,CLR,,0.00,WeatherDisplay:10.37,2013-03-19 23:00:00,
2013-03-20 12:15:00,3.9,1.1,28.92,NE,46,9.0,12.0,88,0.00,CLR,,0.00,WeatherDisplay:10.37,2013-03-19 23:15:00,
2013-03-20 12:30:00,3.4,0.6,28.92,NE,53,10.0,10.0,88,0.00,CLR,,0.00,WeatherDisplay:10.37,2013-03-19 23:30:00,
2013-03-20 12:45:00,2.2,-0.8,28.92,NE,42,13.0,13.0,87,0.00,CLR,,0.00,WeatherDisplay:10.37,2013-03-19 23:45:00,
2013-03-20 13:00:00,2.0,-1.0,28.92,NE,37,13.0,13.0,87,0.00,CLR,,0.00,WeatherDisplay:10.37,2013-03-20 00:00:00,
2013-03-20 13:15:00,1.7,-1.3,28.91,NNE,26,15.0,15.0,87,0.00,CLR,,0.00,WeatherDisplay:10.37,2013-03-20 00:15:00,
2013-03-20 13:30:00,1.6,-1.4,28.91,NNE,28,15.0,15.0,87,0.00,CLR,,0.00,WeatherDisplay:10.37,2013-03-20 00:30:00,
2013-03-20 13:45:00,1.7,-1.3,28.91,NNE,24,17.0,17.0,87,0.00,CLR,,0.00,WeatherDisplay:10.37,2013-03-20 00:45:00,
2013-03-20 14:00:00,1.7,-1.3,28.90,NNE,23,20.0,20.0,87,0.00,CLR,,0.00,WeatherDisplay:10.37,2013-03-20 01:00:00,
2013-03-20 14:15:00,1.5,-1.5,28.90,NNE,26,21.0,21.0,87,0.00,CLR,,0.00,WeatherDisplay:10.37,2013-03-20 01:15:00,
2013-03-20 14:30:00,1.2,-1.7,28.89,NNE,26,21.0,21.0,87,0.00,CLR,,0.00,WeatherDisplay:10.37,2013-03-20 01:30:00,
2013-03-20 14:45:00,0.7,-2.5,28.89,NE,34,18.0,21.0,86,0.00,CLR,,0.00,WeatherDisplay:10.37,2013-03-20 01:45:00,
2013-03-20 15:00:00,0.5,-2.7,28.89,NNE,33,18.0,18.0,86,0.00,CLR,,0.00,WeatherDisplay:10.37,2013-03-20 02:00:00,
2013-03-20 15:15:00,0.5,-2.7,28.89,NNE,29,17.0,18.0,86,0.00,CLR,,0.00,WeatherDisplay:10.37,2013-03-20 02:15:00,
2013-03-20 15:30:00,0.4,-2.8,28.89,NNE,27,18.0,18.0,86,0.00,CLR,,0.00,WeatherDisplay:10.37,2013-03-20 02:30:00,
2013-03-20 15:45:00,0.3,-2.9,28.88,NNE,30,17.0,18.0,86,0.00,CLR,,0.00,WeatherDisplay:10.37,2013-03-20 02:45:00,
2013-03-20 16:00:00,0.4,-2.8,28.88,NNE,29,17.0,17.0,86,0.00,CLR,,0.00,WeatherDisplay:10.37,2013-03-20 03:00:00,
2013-03-20 16:15:00,0.3,-2.9,28.88,NNE,30,16.0,17.0,86,0.00,CLR,,0.00,WeatherDisplay:10.37,2013-03-20 03:15:00,
2013-03-20 16:30:00,0.3,-2.9,28.88,NNE,33,16.0,16.0,86,0.00,CLR,,0.00,WeatherDisplay:10.37,2013-03-20 03:30:00,
2013-03-20 16:45:00,-0.1,-3.3,28.88,NNE,32,17.0,17.0,86,0.00,CLR,,0.00,WeatherDisplay:10.37,2013-03-20 03:45:00,
2013-03-20 17:00:00,-0.3,-3.5,28.88,NNE,29,18.0,18.0,86,0.00,CLR,,0.00,WeatherDisplay:10.37,2013-03-20 04:00:00,
2013-03-20 17:15:00,-0.5,-3.7,28.88,NNE,31,18.0,18.0,86,0.00,CLR,,0.00,WeatherDisplay:10.37,2013-03-20 04:15:00,
2013-03-20 17:30:00,-0.6,-3.8,28.88,NNE,28,17.0,18.0,86,0.00,CLR,,0.00,WeatherDisplay:10.37,2013-03-20 04:30:00,
2013-03-20 17:45:00,-0.5,-3.7,28.88,NNE,26,18.0,18.0,86,0.00,CLR,,0.00,WeatherDisplay:10.37,2013-03-20 04:45:00,
2013-03-20 18:00:00,-0.5,-3.7,28.88,NNE,28,18.0,18.0,86,0.00,CLR,,0.00,WeatherDisplay:10.37,2013-03-20 05:00:00,
2013-03-20 18:15:00,-0.5,-3.7,28.87,NNE,29,20.0,20.0,86,0.00,CLR,,0.00,WeatherDisplay:10.37,2013-03-20 05:15:00,
2013-03-20 18:30:00,-0.5,-3.7,28.87,NNE,29,18.0,20.0,86,0.00,CLR,,0.00,WeatherDisplay:10.37,2013-03-20 05:30:00,
2013-03-20 18:45:00,-0.8,-3.9,28.87,NNE,31,18.0,18.0,86,0.00,CLR,,0.00,WeatherDisplay:10.37,2013-03-20 05:45:00,
2013-03-20 19:00:00,-0.7,-3.9,28.87,NNE,31,18.0,18.0,86,0.00,CLR,,0.00,WeatherDisplay:10.37,2013-03-20 06:00:00,
2013-03-20 19:15:00,-1.1,-4.5,28.87,NNE,28,17.0,18.0,85,0.00,CLR,,0.00,WeatherDisplay:10.37,2013-03-20 06:15:00,
2013-03-20 19:30:00,-1.3,-4.7,28.87,NNE,31,16.0,17.0,85,0.00,CLR,,0.00,WeatherDisplay:10.37,2013-03-20 06:30:00,
2013-03-20 19:45:00,-1.7,-5.1,28.87,NNE,28,15.0,16.0,85,0.00,CLR,,0.00,WeatherDisplay:10.37,2013-03-20 06:45:00,
2013-03-20 20:00:00,-1.7,-5.1,28.86,NNE,26,15.0,15.0,85,0.00,CLR,,0.00,WeatherDisplay:10.37,2013-03-20 07:00:00,
2013-03-20 20:15:00,-1.6,-5.0,28.86,NNE,29,15.0,15.0,85,0.00,CLR,,0.00,WeatherDisplay:10.37,2013-03-20 07:15:00,
2013-03-20 20:30:00,-1.6,-5.0,28.86,NNE,26,16.0,16.0,85,0.00,CLR,,0.00,WeatherDisplay:10.37,2013-03-20 07:30:00,
2013-03-20 20:45:00,-1.5,-4.9,28.86,NNE,29,15.0,16.0,85,0.00,CLR,,0.00,WeatherDisplay:10.37,2013-03-20 07:45:00,
2013-03-20 21:00:00,-1.6,-5.0,28.86,NNE,25,16.0,16.0,85,0.00,CLR,,0.00,WeatherDisplay:10.37,2013-03-20 08:00:00,
2013-03-20 21:15:00,-1.5,-4.9,28.85,NNE,28,14.0,16.0,85,0.00,CLR,,0.00,WeatherDisplay:10.37,2013-03-20 08:15:00,
2013-03-20 21:30:00,-1.9,-5.3,28.85,NNE,24,15.0,15.0,85,0.00,CLR,,0.00,WeatherDisplay:10.37,2013-03-20 08:30:00,
2013-03-20 21:45:00,-1.1,-4.6,28.85,NNE,26,15.0,15.0,85,0.00,CLR,,0.00,WeatherDisplay:10.37,2013-03-20 08:45:00,
2013-03-20 22:00:00,-0.7,-3.9,28.84,NNE,28,15.0,15.0,86,0.00,CLR,,0.00,WeatherDisplay:10.37,2013-03-20 09:00:00,
2013-03-20 22:15:00,-1.5,-4.9,28.84,NNE,30,15.0,15.0,85,0.00,CLR,,0.00,WeatherDisplay:10.37,2013-03-20 09:15:00,
2013-03-20 22:30:00,-1.4,-4.5,28.84,NNE,29,15.0,15.0,86,0.00,CLR,,0.00,WeatherDisplay:10.37,2013-03-20 09:30:00,
2013-03-20 22:45:00,-1.6,-5.0,28.84,NNE,28,14.0,15.0,85,0.00,CLR,,0.00,WeatherDisplay:10.37,2013-03-20 09:45:00,
2013-03-20 23:00:00,-1.6,-5.1,28.84,NNE,32,13.0,14.0,85,0.00,CLR,,0.00,WeatherDisplay:10.37,2013-03-20 10:00:00,
2013-03-20 23:15:00,-2.1,-5.5,28.84,NNE,31,12.0,13.0,85,0.00,CLR,,0.00,WeatherDisplay:10.37,2013-03-20 10:15:00,
2013-03-20 23:30:00,-2.1,-5.5,28.83,NNE,28,12.0,12.0,85,0.00,CLR,,0.00,WeatherDisplay:10.37,2013-03-20 10:30:00,
2013-03-20 23:45:00,-3.0,-6.7,28.83,NNE,29,12.0,12.0,84,0.00,CLR,,0.00,WeatherDisplay:10.37,2013-03-20 10:45:00,